Time,TemperatureF,DewpointF,PressureIn,WindDirection,WindDirectionDegrees,WindSpeedMPH,WindSpeedGustMPH,Humidity,HourlyPrecipIn,Conditions,Clouds,dailyrainin,SoftwareType,DateUTC
2013-01-03 00:02:00,34.0,5.0,-100.00,NW,305,1.0,6.0,29,0.00,,,0.00,,2013-01-03 08:02:00,
2013-01-03 00:22:00,36.0,3.0,-100.00,NE,52,4.0,10.0,24,0.00,,,0.00,,2013-01-03 08:22:00,
2013-01-03 00:33:00,36.0,3.0,-100.00,NE,52,4.0,10.0,24,0.00,,,0.00,,2013-01-03 08:33:00,
2013-01-03 00:43:00,36.0,3.0,-100.00,NE,52,4.0,10.0,24,0.00,,,0.00,,2013-01-03 08:43:00,
2013-01-03 00:53:00,36.0,3.0,-100.00,NE,52,4.0,10.0,24,0.00,,,0.00,,2013-01-03 08:53:00,
2013-01-03 01:02:00,36.0,3.0,-100.00,NE,52,4.0,10.0,24,0.00,,,0.00,,2013-01-03 09:02:00,
2013-01-03 01:22:00,35.0,4.0,-100.00,NE,53,3.0,11.0,27,0.00,,,0.00,,2013-01-03 09:22:00,
2013-01-03 01:34:00,35.0,4.0,-100.00,NE,53,3.0,11.0,27,0.00,,,0.00,,2013-01-03 09:34:00,
2013-01-03 01:43:00,35.0,4.0,-100.00,NE,53,3.0,11.0,27,0.00,,,0.00,,2013-01-03 09:43:00,
2013-01-03 01:53:00,35.0,4.0,-100.00,NE,53,3.0,11.0,27,0.00,,,0.00,,2013-01-03 09:53:00,
2013-01-03 02:02:00,35.0,4.0,-100.00,NE,53,3.0,11.0,27,0.00,,,0.00,,2013-01-03 10:02:00,
2013-01-03 02:33:00,34.0,1.0,-100.00,ENE,64,4.0,10.0,24,0.00,,,0.00,,2013-01-03 10:33:00,
2013-01-03 02:43:00,34.0,1.0,-100.00,ENE,64,4.0,10.0,24,0.00,,,0.00,,2013-01-03 10:43:00,
2013-01-03 02:52:00,34.0,1.0,-100.00,ENE,64,4.0,10.0,24,0.00,,,0.00,,2013-01-03 10:52:00,
2013-01-03 03:02:00,34.0,1.0,-100.00,ENE,64,4.0,10.0,24,0.00,,,0.00,,2013-01-03 11:02:00,
2013-01-03 03:33:00,36.0,2.0,-100.00,NE,44,3.0,13.0,23,0.00,,,0.00,,2013-01-03 11:33:00,
2013-01-03 03:43:00,36.0,2.0,-100.00,NE,44,3.0,13.0,23,0.00,,,0.00,,2013-01-03 11:43:00,
2013-01-03 03:53:00,36.0,2.0,-100.00,NE,44,3.0,13.0,23,0.00,,,0.00,,2013-01-03 11:53:00,
2013-01-03 04:02:00,36.0,2.0,-100.00,NE,44,3.0,13.0,23,0.00,,,0.00,,2013-01-03 12:02:00,
2013-01-03 04:22:00,34.0,1.0,-100.00,ENE,60,3.0,15.0,24,0.00,,,0.00,,2013-01-03 12:22:00,
2013-01-03 04:33:00,34.0,1.0,-100.00,ENE,60,3.0,15.0,24,0.00,,,0.00,,2013-01-03 12:33:00,
2013-01-03 04:43:00,34.0,1.0,-100.00,ENE,60,3.0,15.0,24,0.00,,,0.00,,2013-01-03 12:43:00,
2013-01-03 04:53:00,34.0,1.0,-100.00,ENE,60,3.0,15.0,24,0.00,,,0.00,,2013-01-03 12:53:00,
2013-01-03 05:02:00,34.0,1.0,-100.00,ENE,60,3.0,15.0,24,0.00,,,0.00,,2013-01-03 13:02:00,
2013-01-03 05:22:00,33.0,2.0,-100.00,ENE,63,3.0,13.0,26,0.00,,,0.00,,2013-01-03 13:22:00,
2013-01-03 05:33:00,33.0,2.0,-100.00,ENE,63,3.0,13.0,26,0.00,,,0.00,,2013-01-03 13:33:00,
2013-01-03 05:42:00,33.0,2.0,-100.00,ENE,63,3.0,13.0,26,0.00,,,0.00,,2013-01-03 13:42:00,
2013-01-03 05:53:00,33.0,2.0,-100.00,ENE,63,3.0,13.0,26,0.00,,,0.00,,2013-01-03 13:53:00,
2013-01-03 06:02:00,33.0,2.0,-100.00,ENE,63,3.0,13.0,26,0.00,,,0.00,,2013-01-03 14:02:00,
2013-01-03 06:33:00,34.0,4.0,-100.00,ESE,104,4.0,12.0,28,0.00,,,0.00,,2013-01-03 14:33:00,
2013-01-03 06:43:00,34.0,4.0,-100.00,ESE,104,4.0,12.0,28,0.00,,,0.00,,2013-01-03 14:43:00,
2013-01-03 06:53:00,34.0,4.0,-100.00,ESE,104,4.0,12.0,28,0.00,,,0.00,,2013-01-03 14:53:00,
2013-01-03 07:02:00,34.0,4.0,-100.00,ESE,104,4.0,12.0,28,0.00,,,0.00,,2013-01-03 15:02:00,
2013-01-03 07:34:00,32.0,3.0,-100.00,NE,48,4.0,12.0,29,0.00,,,0.00,,2013-01-03 15:34:00,
2013-01-03 07:43:00,32.0,3.0,-100.00,NE,48,4.0,12.0,29,0.00,,,0.00,,2013-01-03 15:43:00,
2013-01-03 07:53:00,32.0,3.0,-100.00,NE,48,4.0,12.0,29,0.00,,,0.00,,2013-01-03 15:53:00,
2013-01-03 08:02:00,32.0,3.0,-100.00,NE,48,4.0,12.0,29,0.00,,,0.00,,2013-01-03 16:02:00,
2013-01-03 08:23:00,36.0,7.0,-100.00,East,79,2.0,11.0,29,0.00,,,0.00,,2013-01-03 16:23:00,
2013-01-03 08:34:00,36.0,7.0,-100.00,East,79,2.0,11.0,29,0.00,,,0.00,,2013-01-03 16:34:00,
2013-01-03 08:43:00,36.0,7.0,-100.00,East,79,2.0,11.0,29,0.00,,,0.00,,2013-01-03 16:43:00,
2013-01-03 08:53:00,36.0,7.0,-100.00,East,79,2.0,11.0,29,0.00,,,0.00,,2013-01-03 16:53:00,
2013-01-03 09:02:00,36.0,7.0,-100.00,East,79,2.0,11.0,29,0.00,,,0.00,,2013-01-03 17:02:00,
2013-01-03 09:23:00,41.0,6.0,-100.00,South,176,4.0,10.0,23,0.00,,,0.00,,2013-01-03 17:23:00,
2013-01-03 09:33:00,41.0,6.0,-100.00,South,176,4.0,10.0,23,0.00,,,0.00,,2013-01-03 17:33:00,
2013-01-03 09:43:00,41.0,6.0,-100.00,South,176,4.0,10.0,23,0.00,,,0.00,,2013-01-03 17:43:00,
2013-01-03 09:53:00,41.0,6.0,-100.00,South,176,4.0,10.0,23,0.00,,,0.00,,2013-01-03 17:53:00,
2013-01-03 10:02:00,41.0,6.0,-100.00,South,176,4.0,10.0,23,0.00,,,0.00,,2013-01-03 18:02:00,
2013-01-03 10:22:00,40.0,7.0,-100.00,SW,221,3.0,11.0,25,0.00,,,0.00,,2013-01-03 18:22:00,
2013-01-03 10:33:00,40.0,7.0,-100.00,SW,221,3.0,11.0,25,0.00,,,0.00,,2013-01-03 18:33:00,
2013-01-03 10:43:00,40.0,7.0,-100.00,SW,221,3.0,11.0,25,0.00,,,0.00,,2013-01-03 18:43:00,
2013-01-03 10:53:00,40.0,7.0,-100.00,SW,221,3.0,11.0,25,0.00,,,0.00,,2013-01-03 18:53:00,
2013-01-03 11:02:00,40.0,7.0,-100.00,SW,221,3.0,11.0,25,0.00,,,0.00,,2013-01-03 19:02:00,
2013-01-03 11:56:00,46.0,7.0,-100.00,NE,52,2.0,10.0,20,0.00,,,0.00,,2013-01-03 19:56:00,
2013-01-03 12:23:00,46.0,9.0,-100.00,ENE,72,3.0,14.0,22,-99.99,,,0.00,,2013-01-03 20:23:00,
2013-01-03 12:33:00,46.0,9.0,-100.00,ENE,72,3.0,14.0,22,-99.99,,,0.00,,2013-01-03 20:33:00,
2013-01-03 13:37:00,46.0,7.0,-100.00,ENE,64,4.0,9.0,20,-99.99,,,0.00,,2013-01-03 21:37:00,
2013-01-03 14:33:00,43.0,9.0,-100.00,ENE,75,3.0,13.0,24,-99.99,,,0.00,,2013-01-03 22:33:00,
2013-01-03 14:43:00,43.0,9.0,-100.00,ENE,75,3.0,13.0,24,-99.99,,,0.00,,2013-01-03 22:43:00,
2013-01-03 14:52:00,43.0,9.0,-100.00,ENE,75,3.0,13.0,24,-99.99,,,0.00,,2013-01-03 22:52:00,
2013-01-03 15:02:00,43.0,9.0,-100.00,ENE,75,3.0,13.0,24,-99.99,,,0.00,,2013-01-03 23:02:00,
2013-01-03 15:33:00,39.0,7.0,-100.00,NE,55,2.0,9.0,26,0.00,,,0.00,,2013-01-03 23:33:00,
2013-01-03 15:43:00,39.0,7.0,-100.00,NE,55,2.0,9.0,26,0.00,,,0.00,,2013-01-03 23:43:00,
2013-01-03 15:53:00,39.0,7.0,-100.00,NE,55,2.0,9.0,26,0.00,,,0.00,,2013-01-03 23:53:00,
2013-01-03 16:02:00,39.0,7.0,-100.00,NE,55,2.0,9.0,26,0.00,,,0.00,,2013-01-04 00:02:00,
2013-01-03 16:23:00,39.0,5.0,-100.00,NE,38,1.0,9.0,24,0.00,,,0.00,,2013-01-04 00:23:00,
2013-01-03 16:33:00,39.0,5.0,-100.00,NE,38,1.0,9.0,24,0.00,,,0.00,,2013-01-04 00:33:00,
2013-01-03 16:42:00,39.0,5.0,-100.00,NE,38,1.0,9.0,24,0.00,,,0.00,,2013-01-04 00:42:00,
2013-01-03 16:52:00,39.0,5.0,-100.00,NE,38,1.0,9.0,24,0.00,,,0.00,,2013-01-04 00:52:00,
2013-01-03 17:02:00,39.0,5.0,-100.00,NE,38,1.0,9.0,24,0.00,,,0.00,,2013-01-04 01:02:00,
2013-01-03 17:33:00,32.0,8.0,-100.00,NE,46,0.0,11.0,36,0.00,,,0.00,,2013-01-04 01:33:00,
2013-01-03 17:42:00,32.0,8.0,-100.00,NE,46,0.0,11.0,36,0.00,,,0.00,,2013-01-04 01:42:00,
2013-01-03 17:52:00,32.0,8.0,-100.00,NE,46,0.0,11.0,36,0.00,,,0.00,,2013-01-04 01:52:00,
2013-01-03 18:02:00,32.0,8.0,-100.00,NE,46,0.0,11.0,36,0.00,,,0.00,,2013-01-04 02:02:00,
2013-01-03 18:22:00,32.0,6.0,-100.00,NE,56,3.0,6.0,32,0.00,,,0.00,,2013-01-04 02:22:00,
2013-01-03 18:33:00,32.0,6.0,-100.00,NE,56,3.0,6.0,32,0.00,,,0.00,,2013-01-04 02:33:00,
2013-01-03 18:42:00,32.0,6.0,-100.00,NE,56,3.0,6.0,32,0.00,,,0.00,,2013-01-04 02:42:00,
2013-01-03 18:53:00,32.0,6.0,-100.00,NE,56,3.0,6.0,32,0.00,,,0.00,,2013-01-04 02:53:00,
2013-01-03 19:02:00,32.0,6.0,-100.00,NE,56,3.0,6.0,32,0.00,,,0.00,,2013-01-04 03:02:00,
2013-01-03 19:33:00,32.0,3.0,-100.00,NE,45,3.0,7.0,28,0.00,,,0.00,,2013-01-04 03:33:00,
2013-01-03 19:43:00,32.0,3.0,-100.00,NE,45,3.0,7.0,28,0.00,,,0.00,,2013-01-04 03:43:00,
2013-01-03 19:52:00,32.0,3.0,-100.00,NE,45,3.0,7.0,28,0.00,,,0.00,,2013-01-04 03:52:00,
2013-01-03 20:02:00,32.0,3.0,-100.00,NE,45,3.0,7.0,28,0.00,,,0.00,,2013-01-04 04:02:00,
2013-01-03 20:03:00,33.0,3.0,-100.00,ENE,61,3.0,8.0,27,0.00,,,-99.99,,2013-01-04 04:03:00,
2013-01-03 20:32:00,33.0,3.0,-100.00,ENE,61,3.0,8.0,27,0.00,,,-99.99,,2013-01-04 04:32:00,
2013-01-03 20:42:00,33.0,3.0,-100.00,ENE,61,3.0,8.0,27,0.00,,,-99.99,,2013-01-04 04:42:00,
2013-01-03 20:52:00,33.0,3.0,-100.00,ENE,61,3.0,8.0,27,0.00,,,-99.99,,2013-01-04 04:52:00,
2013-01-03 21:33:00,32.0,2.0,-100.00,ENE,61,3.0,10.0,27,0.00,,,0.00,,2013-01-04 05:33:00,
2013-01-03 21:42:00,32.0,2.0,-100.00,ENE,61,3.0,10.0,27,0.00,,,0.00,,2013-01-04 05:42:00,
2013-01-03 21:52:00,32.0,2.0,-100.00,ENE,61,3.0,10.0,27,0.00,,,0.00,,2013-01-04 05:52:00,
2013-01-03 22:02:00,32.0,2.0,-100.00,ENE,61,3.0,10.0,27,0.00,,,0.00,,2013-01-04 06:02:00,
2013-01-03 22:33:00,32.0,0.0,-100.00,ENE,58,3.0,8.0,25,0.00,,,0.00,,2013-01-04 06:33:00,
2013-01-03 22:42:00,32.0,0.0,-100.00,ENE,58,3.0,8.0,25,0.00,,,0.00,,2013-01-04 06:42:00,
2013-01-03 22:52:00,32.0,0.0,-100.00,ENE,58,3.0,8.0,25,0.00,,,0.00,,2013-01-04 06:52:00,
2013-01-03 23:02:00,32.0,0.0,-100.00,ENE,58,3.0,8.0,25,0.00,,,0.00,,2013-01-04 07:02:00,
2013-01-03 23:32:00,32.0,0.0,-100.00,ENE,61,1.0,11.0,25,0.00,,,-99.99,,2013-01-04 07:32:00,
2013-01-03 23:42:00,32.0,0.0,-100.00,ENE,61,1.0,11.0,25,0.00,,,-99.99,,2013-01-04 07:42:00,
2013-01-03 23:52:00,32.0,0.0,-100.00,ENE,61,1.0,11.0,25,0.00,,,-99.99,,2013-01-04 07:52:00,